Fowler, New York
Current Conditions -  °F | °C
As of 12:58 AM on Sunday 21 Dec 2014 (Local Time) from KGTB Reporting Station
Overcast Overcast  
Wind Chill: 17°   Ceiling: 7500
Heat Index: 24°   Visibility: 10mi
Dew Point: 17°   Wind: 6mph
Humidity: 73%   Direction: 140°SE
Pressure: 30.26"   Gusts: NA
Location:  44.3309°N, 75.4775°W
Report Text: KGTB 210558Z AUTO 14005KT 10SM FEW021 OVC075 M04/M09 A3026 RMK AO2 SLP258 T10451086 11044 21072 57006
Loading
Personal Weather Stations






























Interactive Weather Map New forecast layout! Learn more

10-Day Weather Forecast

Advertisements
Track Severe Weather on mobile